Leyendecker II PSRC

2020-09-27 21:10:00

  • imperial
Date Time Air Temperature Relative Humidity Dewpoint Windchill Heat Index Wind Speed Wind Dir. Rain Solar Radiation Soil Temperature
2m 2m 3m 3m 10cm
US/Mountain F % F F F MPH deg in MJ/m^2 F
max avg avg
2020-09-26 21:20:00 82.3 17.8 34.3 82.3 82.3 1.9 4.7 3.1 230.2 250.1 0.00 0.0000000 73.9
2020-09-26 21:25:00 82.0 17.6 33.8 82.0 82.0 4.7 5.8 3.7 252.0 246.2 0.00 0.0000000 73.9
2020-09-26 21:30:00 82.1 17.7 33.9 82.1 82.1 4.0 6.3 3.9 233.7 253.3 0.00 0.0000000 73.9
2020-09-26 21:35:00 81.5 18.5 34.5 81.5 81.5 4.2 4.7 3.0 288.1 253.5 0.00 0.0000000 73.9
2020-09-26 21:40:00 81.3 18.7 34.7 81.3 81.3 1.9 7.4 3.4 228.3 263.2 0.00 0.0000000 73.9
2020-09-26 21:45:00 80.9 18.4 33.9 80.9 80.9 3.0 5.8 2.9 0.5 267.1 0.00 0.0000000 73.8
2020-09-26 21:50:00 80.6 18.6 34.0 80.6 80.6 3.8 4.2 2.8 285.0 296.1 0.00 0.0000000 73.8
2020-09-26 21:55:00 77.7 26.3 40.4 77.7 77.7 2.1 4.0 3.2 85.0 25.8 0.00 0.0000000 73.8
2020-09-26 22:00:00 75.4 30.2 42.0 75.4 75.4 3.1 3.8 3.0 80.7 64.2 0.00 0.0000000 73.8
2020-09-26 22:05:00 74.1 31.3 41.8 74.1 74.1 3.0 3.0 2.1 90.1 53.2 0.00 0.0000000 73.8
2020-09-26 22:10:00 73.1 32.8 42.1 73.1 73.1 1.5 4.0 2.7 343.3 63.6 0.00 0.0000000 73.7
2020-09-26 22:15:00 71.9 33.5 41.6 71.9 71.9 1.2 2.1 1.5 31.4 57.0 0.00 0.0000000 73.7
2020-09-26 22:20:00 71.5 33.8 41.5 71.5 71.5 0.0 2.1 1.3 119.1 65.9 0.00 0.0000000 73.7
2020-09-26 22:25:00 70.7 35.6 42.1 70.7 70.7 0.8 1.0 0.4 302.9 129.1 0.00 0.0000000 73.7
2020-09-26 22:30:00 70.3 36.0 42.1 70.3 70.3 1.2 2.6 0.9 198.6 106.0 0.00 0.0000000 73.6
2020-09-26 22:35:00 70.1 35.5 41.6 70.1 70.1 1.3 2.4 1.1 209.3 92.0 0.00 0.0000000 73.7
2020-09-26 22:40:00 70.1 35.1 41.2 70.1 70.1 2.2 2.2 1.4 233.6 140.8 0.00 0.0000000 73.6
2020-09-26 22:45:00 70.6 35.0 41.6 70.6 70.6 2.1 2.8 1.7 246.1 112.1 0.00 0.0000000 73.6
2020-09-26 22:50:00 70.3 34.5 41.0 70.3 70.3 1.9 3.1 1.9 68.9 194.8 0.00 0.0000000 73.6
2020-09-26 22:55:00 69.6 36.5 41.8 69.6 69.6 2.1 2.8 1.3 253.8 136.6 0.00 0.0000000 73.5
2020-09-26 23:00:00 69.9 36.6 42.1 69.9 69.9 1.0 3.1 1.9 277.2 350.5 0.00 0.0000163 73.5
2020-09-26 23:05:00 69.4 35.9 41.2 69.4 69.4 0.8 2.2 1.6 334.2 12.2 0.00 0.0000000 73.5
2020-09-26 23:10:00 68.4 37.9 41.7 68.4 68.4 1.2 1.9 1.1 251.4 359.3 0.00 0.0000000 73.5
2020-09-26 23:15:00 68.8 34.2 39.4 68.8 68.8 2.1 3.5 2.1 53.7 354.3 0.00 0.0000000 73.5
2020-09-26 23:20:00 71.9 30.1 38.9 71.9 71.9 3.5 6.2 3.8 316.7 340.7 0.00 0.0000978 73.4
2020-09-26 23:25:00 72.6 26.7 36.4 72.6 72.6 3.7 5.3 2.9 299.2 291.6 0.00 0.0000143 73.4
2020-09-26 23:30:00 73.2 26.1 36.4 73.2 73.2 2.1 6.3 3.3 293.4 316.0 0.00 0.0000000 73.4
2020-09-26 23:35:00 74.0 26.8 37.7 74.0 74.0 2.4 6.3 3.4 278.9 325.7 0.00 0.0000000 73.4
2020-09-26 23:40:00 73.8 24.1 34.8 73.8 73.8 1.9 5.8 2.9 96.3 347.4 0.00 0.0000000 73.3
2020-09-26 23:45:00 73.8 25.4 36.2 73.8 73.8 2.1 4.7 2.4 21.6 24.6 0.00 0.0000000 73.3
2020-09-26 23:50:00 74.0 24.1 35.0 74.0 74.0 3.1 5.6 3.2 37.1 1.2 0.00 0.0000000 73.3
2020-09-26 23:55:00 74.3 25.0 36.2 74.3 74.3 3.3 3.8 3.1 13.9 30.5 0.00 0.0000000 73.3
2020-09-27 00:00:00 74.1 24.2 35.2 74.1 74.1 2.4 6.0 3.1 321.6 328.7 0.00 0.0000000 73.3
2020-09-27 00:05:00 73.7 27.4 38.0 73.7 73.7 1.0 2.8 1.5 287.7 266.4 0.00 0.0000000 73.2
2020-09-27 00:10:00 73.3 28.2 38.4 73.3 73.3 1.9 2.8 2.0 278.3 234.1 0.00 0.0000000 73.2
2020-09-27 00:15:00 72.2 27.8 37.0 72.2 72.2 2.8 3.7 2.7 341.3 341.1 0.00 0.0000000 73.2
2020-09-27 00:20:00 70.7 30.2 37.9 70.7 70.7 1.0 2.6 1.9 7.4 334.8 0.00 0.0000000 73.2
2020-09-27 00:25:00 69.9 32.6 39.1 69.9 69.9 1.2 2.1 1.3 348.5 218.4 0.00 0.0000000 73.1
2020-09-27 00:30:00 69.1 33.3 39.0 69.1 69.1 1.7 2.2 1.1 241.5 333.2 0.00 0.0000000 73.1
2020-09-27 00:35:00 69.6 30.1 36.9 69.6 69.6 1.5 2.6 1.9 301.7 283.8 0.00 0.0000000 73.1
2020-09-27 00:40:00 69.5 32.6 38.8 69.5 69.5 1.7 2.2 1.8 282.2 279.1 0.00 0.0000000 73.1
2020-09-27 00:45:00 69.6 30.9 37.5 69.6 69.6 2.8 3.1 2.5 267.4 253.8 0.00 0.0000000 73.1
2020-09-27 00:50:00 70.7 29.2 37.0 70.7 70.7 2.6 4.0 2.8 319.5 274.6 0.00 0.0000000 73.1
2020-09-27 00:55:00 69.7 32.4 38.8 69.7 69.7 3.3 4.0 3.3 343.4 330.3 0.00 0.0000000 73.0
2020-09-27 01:00:00 68.9 31.7 37.5 68.9 68.9 2.6 4.2 3.4 275.0 323.7 0.00 0.0000000 73.0
2020-09-27 01:05:00 68.9 32.2 38.0 68.9 68.9 2.2 2.8 2.5 275.3 259.9 0.00 0.0000000 73.0
2020-09-27 01:10:00 68.7 33.0 38.5 68.7 68.7 0.8 2.8 1.6 349.3 313.3 0.00 0.0000000 73.0
2020-09-27 01:15:00 67.3 35.7 39.2 67.3 67.3 3.1 3.3 1.9 1.3 12.8 0.00 0.0000000 73.0
2020-09-27 01:20:00 66.9 35.5 38.7 66.9 66.9 1.7 3.0 1.9 339.8 326.9 0.00 0.0000000 72.9
2020-09-27 01:25:00 66.7 36.8 39.5 66.7 66.7 2.2 2.2 1.7 331.9 336.8 0.00 0.0000000 72.9
2020-09-27 01:30:00 65.9 38.2 39.8 65.9 65.9 2.2 2.6 2.2 281.7 281.2 0.00 0.0000000 72.9
2020-09-27 01:35:00 65.9 39.8 40.8 65.9 65.9 2.4 2.8 2.4 257.6 271.1 0.00 0.0000000 72.9
2020-09-27 01:40:00 65.6 40.7 41.0 65.6 65.6 2.1 2.6 2.2 291.8 271.4 0.00 0.0000000 72.8
2020-09-27 01:45:00 65.3 39.6 40.1 65.3 65.3 2.1 2.6 1.7 271.3 298.5 0.00 0.0000000 72.8
2020-09-27 01:50:00 65.2 37.9 38.9 65.2 65.2 2.6 3.0 2.0 316.4 315.1 0.00 0.0000000 72.8
2020-09-27 01:55:00 65.2 36.0 37.6 65.2 65.2 2.4 3.1 2.5 316.9 305.7 0.00 0.0000000 72.8
2020-09-27 02:00:00 65.1 38.4 39.1 65.1 65.1 2.8 3.3 2.6 317.6 308.0 0.00 0.0000000 72.7
2020-09-27 02:05:00 64.5 40.3 39.8 64.5 64.5 2.2 3.3 2.8 330.7 318.7 0.00 0.0000000 72.7
2020-09-27 02:10:00 63.8 42.5 40.6 63.8 63.8 3.1 3.3 2.8 324.6 322.5 0.00 0.0000000 72.7
2020-09-27 02:15:00 63.8 41.9 40.1 63.8 63.8 3.3 3.7 3.2 330.8 324.8 0.00 0.0000000 72.7
2020-09-27 02:20:00 63.9 42.0 40.3 63.9 63.9 4.6 4.6 3.9 348.5 329.5 0.00 0.0000000 72.7
2020-09-27 02:25:00 64.9 39.7 39.8 64.9 64.9 2.2 5.5 4.3 309.6 359.8 0.00 0.0000000 72.7
2020-09-27 02:30:00 65.2 39.0 39.6 65.2 65.2 1.5 2.4 2.0 327.4 333.5 0.00 0.0000000 72.7
2020-09-27 02:35:00 64.4 41.1 40.3 64.4 64.4 2.2 2.2 1.9 327.8 343.5 0.00 0.0000000 72.6
2020-09-27 02:40:00 64.0 41.2 39.9 64.0 64.0 2.2 2.6 2.3 305.2 293.1 0.00 0.0000000 72.6
2020-09-27 02:45:00 63.9 41.9 40.3 63.9 63.9 2.1 2.6 2.3 306.7 305.5 0.00 0.0000000 72.6
2020-09-27 02:50:00 63.6 40.2 39.0 63.6 63.6 2.4 3.3 2.4 303.5 302.4 0.00 0.0000000 72.6
2020-09-27 02:55:00 63.0 42.9 40.1 63.0 63.0 2.2 3.0 2.4 341.9 298.6 0.00 0.0000000 72.5
2020-09-27 03:00:00 62.0 45.3 40.6 62.0 62.0 3.0 4.0 3.1 296.9 317.4 0.00 0.0000000 72.5
2020-09-27 03:05:00 61.9 45.8 40.7 61.9 61.9 2.4 3.3 2.3 277.0 284.1 0.00 0.0000000 72.5
2020-09-27 03:10:00 61.6 47.5 41.5 61.6 61.6 2.1 2.8 2.3 270.7 277.3 0.00 0.0000000 72.5
2020-09-27 03:15:00 61.4 48.7 42.0 61.4 61.4 2.4 3.1 2.4 274.9 283.9 0.00 0.0000000 72.5
2020-09-27 03:20:00 61.1 47.6 41.0 61.1 61.1 2.1 3.1 2.3 315.2 291.0 0.00 0.0000000 72.4
2020-09-27 03:25:00 59.7 52.1 42.1 59.7 59.7 2.8 3.8 3.3 293.5 305.0 0.00 0.0000000 72.4
2020-09-27 03:30:00 59.5 50.2 40.9 59.5 59.5 3.1 3.1 2.4 315.6 295.4 0.00 0.0000000 72.4
2020-09-27 03:35:00 60.3 49.2 41.1 60.3 60.3 2.1 4.0 3.0 281.9 297.0 0.00 0.0000000 72.4
2020-09-27 03:40:00 60.3 49.6 41.4 60.3 60.3 2.2 2.6 2.0 302.3 301.0 0.00 0.0000000 72.4
2020-09-27 03:45:00 60.1 49.9 41.3 60.1 60.1 1.9 2.6 2.0 302.6 300.0 0.00 0.0000000 72.3
2020-09-27 03:50:00 60.6 53.0 43.4 60.6 60.6 2.2 2.4 1.8 234.8 253.9 0.00 0.0000000 72.3
2020-09-27 03:55:00 60.9 50.9 42.6 60.9 60.9 1.7 2.6 2.1 246.1 253.3 0.00 0.0000000 72.3
2020-09-27 04:00:00 61.0 51.7 43.1 61.0 61.0 2.2 2.4 2.0 245.2 241.6 0.00 0.0000000 72.3
2020-09-27 04:05:00 61.0 51.6 43.1 61.0 61.0 3.5 3.5 2.4 229.8 248.8 0.00 0.0000000 72.3
2020-09-27 04:10:00 61.8 49.7 42.8 61.8 61.8 2.2 3.5 2.8 220.1 250.7 0.00 0.0000000 72.2
2020-09-27 04:15:00 61.8 49.9 42.9 61.8 61.8 2.2 3.3 2.4 301.9 259.7 0.00 0.0000000 72.2
2020-09-27 04:20:00 60.9 54.1 44.2 60.9 60.9 2.6 3.0 2.1 268.2 272.5 0.00 0.0000000 72.2
2020-09-27 04:25:00 61.4 47.2 41.1 61.4 61.4 3.5 4.6 3.1 259.9 253.8 0.00 0.0000000 72.2
2020-09-27 04:30:00 62.2 46.2 41.3 62.2 62.2 3.3 4.6 3.3 317.0 291.2 0.00 0.0000000 72.2
2020-09-27 04:35:00 60.9 50.0 42.2 60.9 60.9 2.1 4.2 2.9 290.9 284.2 0.00 0.0000000 72.1
2020-09-27 04:40:00 60.3 53.2 43.2 60.3 60.3 3.1 4.4 3.4 311.1 315.7 0.00 0.0000000 72.1
2020-09-27 04:45:00 59.8 50.2 41.3 59.8 59.8 2.8 3.8 2.8 265.1 265.5 0.00 0.0000000 72.1
2020-09-27 04:50:00 60.9 46.5 40.3 60.9 60.9 2.8 4.6 3.0 233.0 262.9 0.00 0.0000000 72.1
2020-09-27 04:55:00 61.1 46.7 40.6 61.1 61.1 3.0 3.5 2.6 323.1 293.3 0.00 0.0000000 72.1
2020-09-27 05:00:00 60.3 52.1 42.7 60.3 60.3 4.4 4.9 4.1 336.9 320.2 0.00 0.0000000 72.1
2020-09-27 05:05:00 59.6 54.3 43.1 59.6 59.6 1.2 3.7 2.4 314.4 349.5 0.00 0.0000000 72.0
2020-09-27 05:10:00 59.1 54.3 42.6 59.1 59.1 1.0 1.2 0.4 309.1 306.0 0.00 0.0000000 72.0
2020-09-27 05:15:00 58.7 52.8 41.6 58.7 58.7 0.8 1.3 1.0 7.2 282.3 0.00 0.0000000 72.0
2020-09-27 05:20:00 58.5 57.2 43.4 58.5 58.5 2.2 2.2 0.5 108.8 32.7 0.00 0.0000000 72.0
2020-09-27 05:25:00 57.9 56.8 42.6 57.9 57.9 1.2 3.1 2.2 167.9 113.0 0.00 0.0000000 72.0
2020-09-27 05:30:00 57.6 58.9 43.3 57.6 57.6 1.5 1.5 0.5 302.7 273.8 0.00 0.0000000 71.9
2020-09-27 05:35:00 56.9 59.8 43.1 56.9 56.9 2.2 2.8 1.8 344.5 5.3 0.00 0.0000000 71.9
2020-09-27 05:40:00 56.8 61.5 43.7 56.8 56.8 1.5 3.3 1.9 16.4 327.8 0.00 0.0000000 71.9
2020-09-27 05:45:00 56.6 61.6 43.5 56.6 56.6 2.8 2.8 1.8 287.0 298.4 0.00 0.0000000 71.9
2020-09-27 05:50:00 56.2 63.4 43.9 56.2 56.2 3.1 5.3 3.2 287.8 299.4 0.00 0.0000000 71.9
2020-09-27 05:55:00 56.0 64.0 44.0 56.0 56.0 3.7 3.8 3.0 341.8 291.7 0.00 0.0000000 71.8
2020-09-27 06:00:00 56.2 61.7 43.2 56.2 56.2 2.8 4.2 3.4 242.7 278.1 0.00 0.0000000 71.8
2020-09-27 06:05:00 57.2 57.0 42.1 57.2 57.2 3.7 4.6 3.1 316.0 337.7 0.00 0.0000000 71.8
2020-09-27 06:10:00 57.8 55.2 41.8 57.8 57.8 1.3 3.3 2.5 35.5 327.7 0.00 0.0000000 71.8
2020-09-27 06:15:00 57.2 56.7 41.9 57.2 57.2 0.0 1.7 0.7 313.3 9.4 0.00 0.0000000 71.8
2020-09-27 06:20:00 56.6 60.6 43.1 56.6 56.6 0.0 1.3 0.6 296.4 274.7 0.00 0.0000000 71.7
2020-09-27 06:25:00 56.6 58.7 42.3 56.6 56.6 1.7 2.8 1.8 297.5 309.7 0.00 0.0000000 71.7
2020-09-27 06:30:00 55.9 63.9 43.9 55.9 55.9 3.1 3.3 1.9 6.4 339.5 0.00 0.0000000 71.7
2020-09-27 06:35:00 55.5 64.2 43.6 55.5 55.5 1.7 3.3 2.5 280.3 324.7 0.00 0.0000000 71.7
2020-09-27 06:40:00 55.1 65.8 43.9 55.1 55.1 1.3 1.7 1.4 288.3 293.2 0.00 0.0000000 71.7
2020-09-27 06:45:00 54.6 65.4 43.3 54.6 54.6 2.8 2.8 2.0 299.1 323.6 0.00 0.0000000 71.7
2020-09-27 06:50:00 54.3 68.7 44.2 54.3 54.3 1.2 2.8 1.8 292.9 280.9 0.00 0.0000000 71.7
2020-09-27 06:55:00 54.0 66.6 43.2 54.0 54.0 1.9 1.9 1.2 348.0 344.0 0.00 0.0000113 71.6
2020-09-27 07:00:00 53.7 69.3 43.9 53.7 53.7 1.7 2.2 1.4 325.8 319.9 0.00 0.0005675 71.6
2020-09-27 07:05:00 53.7 71.8 44.8 53.7 53.7 0.0 2.8 1.5 341.4 260.7 0.00 0.0016885 71.6
2020-09-27 07:10:00 53.5 73.3 45.2 53.5 53.5 1.9 2.1 1.0 26.5 25.3 0.00 0.0028143 71.6
2020-09-27 07:15:00 53.5 70.2 44.0 53.5 53.5 1.9 2.1 1.7 342.6 10.2 0.00 0.0061947 71.6
2020-09-27 07:20:00 53.4 72.7 44.9 53.4 53.4 2.4 2.4 2.2 293.2 304.6 0.00 0.0135247 71.5
2020-09-27 07:25:00 53.7 68.2 43.5 53.7 53.7 3.0 3.1 2.4 319.6 323.5 0.00 0.0179122 71.5
2020-09-27 07:30:00 54.2 72.2 45.5 54.2 54.2 2.6 3.0 2.4 256.5 287.1 0.00 0.0222543 71.5
2020-09-27 07:35:00 55.5 65.8 44.2 55.5 55.5 2.2 3.0 2.4 300.3 272.8 0.00 0.0268115 71.5
2020-09-27 07:40:00 56.6 67.6 46.0 56.6 56.6 2.6 2.6 2.2 276.0 284.9 0.00 0.0313325 71.5
2020-09-27 07:45:00 57.5 65.8 46.2 57.5 57.5 2.2 2.8 2.3 290.5 277.7 0.00 0.0358572 71.5
2020-09-27 07:50:00 58.5 62.4 45.7 58.5 58.5 1.3 2.4 1.8 249.7 249.1 0.00 0.0406242 71.4
2020-09-27 07:55:00 59.5 60.5 45.8 59.5 59.5 1.3 2.2 1.6 323.6 258.2 0.00 0.0452677 71.4
2020-09-27 08:00:00 60.6 62.2 47.6 60.6 60.6 1.5 2.2 1.8 1.2 320.8 0.00 0.0501223 71.4
2020-09-27 08:05:00 61.4 58.9 46.9 61.4 61.4 1.2 1.9 1.1 231.0 329.5 0.00 0.0550905 71.4
2020-09-27 08:10:00 62.7 57.8 47.7 62.7 62.7 1.3 1.3 0.8 258.6 259.3 0.00 0.0602679 71.4
2020-09-27 08:15:00 63.4 52.6 45.8 63.4 63.4 2.4 2.4 2.0 267.5 270.2 0.00 0.0653445 71.3
2020-09-27 08:20:00 64.4 53.1 46.9 64.4 64.4 2.4 3.5 2.3 286.8 271.7 0.00 0.0706949 71.4
2020-09-27 08:25:00 65.4 48.1 45.2 65.4 65.4 1.5 4.4 2.9 291.0 269.8 0.00 0.0761367 71.3
2020-09-27 08:30:00 66.6 47.1 45.8 66.6 66.6 2.2 3.8 2.2 236.8 300.3 0.00 0.0813244 71.3
2020-09-27 08:35:00 67.4 45.7 45.7 67.4 67.4 2.8 3.8 2.7 278.2 270.9 0.00 0.0865157 71.3
2020-09-27 08:40:00 67.8 40.0 42.6 67.8 67.8 5.3 5.6 3.6 320.5 287.0 0.00 0.0917454 71.3
2020-09-27 08:45:00 68.3 39.8 42.9 68.3 68.3 4.4 6.2 4.5 291.1 293.8 0.00 0.0972114 71.3
2020-09-27 08:50:00 68.8 43.8 45.9 68.8 68.8 2.8 6.0 4.2 289.8 289.2 0.00 0.1022816 71.3
2020-09-27 08:55:00 69.2 39.6 43.6 69.2 69.2 5.5 5.5 3.3 292.3 285.6 0.00 0.1070445 71.3
2020-09-27 09:00:00 69.8 42.7 46.1 69.8 69.8 3.7 5.5 4.0 254.7 278.1 0.00 0.1130455 71.3
2020-09-27 09:05:00 70.6 43.6 47.4 70.6 70.6 3.5 4.6 3.3 263.8 268.6 0.00 0.1191500 71.3
2020-09-27 09:10:00 71.2 43.1 47.6 71.2 71.2 3.5 5.3 3.7 272.9 271.3 0.00 0.1245478 71.3
2020-09-27 09:15:00 71.9 40.2 46.3 71.9 71.9 3.3 5.5 3.9 292.8 275.1 0.00 0.1304168 71.3
2020-09-27 09:20:00 72.6 37.0 44.9 72.6 72.6 4.6 5.1 3.8 251.3 276.3 0.00 0.1356875 71.3
2020-09-27 09:25:00 73.1 40.8 47.9 73.1 73.1 2.8 5.5 3.8 232.3 264.4 0.00 0.1412423 71.3
2020-09-27 09:30:00 73.8 38.2 46.8 73.8 73.8 5.1 5.6 3.5 237.1 260.4 0.00 0.1467336 71.3
2020-09-27 09:35:00 74.5 37.4 46.8 74.5 74.5 3.8 6.0 3.9 243.0 267.8 0.00 0.1518980 71.3
2020-09-27 09:40:00 75.3 38.6 48.4 75.3 75.3 3.0 5.6 3.6 303.4 277.3 0.00 0.1571339 71.3
2020-09-27 09:45:00 76.2 32.6 44.7 76.2 76.2 6.3 7.6 5.1 273.5 295.8 0.00 0.1623127 71.3
2020-09-27 09:50:00 76.3 35.6 47.1 76.3 76.3 5.5 7.2 5.9 322.4 295.8 0.00 0.1672632 71.3
2020-09-27 09:55:00 76.4 35.1 46.9 76.4 76.4 5.6 7.2 5.7 290.8 304.4 0.00 0.1722663 71.3
2020-09-27 10:00:00 76.9 33.5 46.0 76.9 76.9 6.7 7.1 5.2 285.9 304.9 0.00 0.1773645 71.3
2020-09-27 10:05:00 77.4 35.5 48.0 77.4 77.4 5.3 7.6 5.7 316.5 305.0 0.00 0.1820884 71.3
2020-09-27 10:10:00 78.3 30.7 44.9 78.3 78.3 5.1 6.2 4.9 324.4 306.4 0.00 0.1868816 71.3
2020-09-27 10:15:00 78.6 35.9 49.4 78.6 78.6 3.8 6.7 5.2 285.9 307.3 0.00 0.1914229 71.4
2020-09-27 10:20:00 79.2 32.9 47.5 79.2 79.2 5.1 6.5 5.1 303.2 306.3 0.00 0.1960621 71.4
2020-09-27 10:25:00 80.4 33.3 48.9 80.4 80.4 4.4 5.8 4.4 255.6 305.6 0.00 0.2004093 71.4
2020-09-27 10:30:00 80.9 30.3 46.9 80.9 80.9 4.2 5.8 4.0 319.3 301.7 0.00 0.2047439 71.5
2020-09-27 10:35:00 81.2 31.9 48.5 81.2 81.2 3.7 6.2 4.6 310.0 310.9 0.00 0.2090354 71.5
2020-09-27 10:40:00 81.5 25.7 43.0 81.5 81.5 4.2 6.3 4.6 319.3 302.5 0.00 0.2129295 71.5
2020-09-27 10:45:00 82.6 25.0 43.2 82.6 82.6 3.5 6.3 4.4 311.9 299.1 0.00 0.2172643 71.5
2020-09-27 10:50:00 83.0 22.0 40.2 83.0 83.0 5.3 6.9 4.5 320.9 315.4 0.00 0.2210191 71.5
2020-09-27 10:55:00 83.0 31.9 50.0 83.0 83.0 3.5 6.3 4.6 257.4 298.2 0.00 0.2244836 71.5
2020-09-27 11:00:00 83.3 28.4 47.2 83.3 83.3 3.7 5.3 3.6 304.5 280.3 0.00 0.2281480 71.6
2020-09-27 11:05:00 83.9 24.3 43.6 83.9 83.9 2.8 4.2 2.7 268.0 270.4 0.00 0.2322137 71.6
2020-09-27 11:10:00 83.6 23.1 42.0 83.6 83.6 3.7 5.6 4.0 247.4 266.4 0.00 0.2349673 71.6
2020-09-27 11:15:00 83.0 25.3 43.9 83.0 83.0 3.0 5.3 4.1 230.7 236.3 0.00 0.2384455 71.7
2020-09-27 11:20:00 83.6 30.9 49.7 83.6 83.6 3.7 5.6 3.5 259.1 243.0 0.00 0.2414710 71.7
2020-09-27 11:25:00 83.2 26.6 45.4 83.2 83.2 4.6 5.8 4.1 246.3 214.6 0.00 0.2444157 71.7
2020-09-27 11:30:00 83.4 26.2 45.1 83.4 83.4 2.8 5.1 4.0 201.7 216.9 0.00 0.2478821 71.8
2020-09-27 11:35:00 84.3 24.4 44.0 84.3 84.3 3.1 3.8 3.1 213.2 202.5 0.00 0.2506996 71.8
2020-09-27 11:40:00 85.0 20.4 39.9 85.0 85.0 3.7 5.1 3.3 254.7 250.0 0.00 0.2529063 71.8
2020-09-27 11:45:00 85.7 17.2 36.2 85.7 85.7 4.2 6.0 3.9 9.5 291.9 0.00 0.2553828 71.9
2020-09-27 11:50:00 85.8 16.2 34.8 85.8 85.8 6.3 8.3 6.0 328.2 339.5 0.00 0.2574150 71.9
2020-09-27 11:55:00 86.2 18.5 38.4 86.2 86.2 4.0 5.8 4.1 335.1 293.8 0.00 0.2600108 71.9
2020-09-27 12:00:00 86.5 17.0 36.5 86.5 86.5 3.5 6.5 4.0 345.5 337.5 0.00 0.2619535 72.0
2020-09-27 12:05:00 86.7 18.5 38.8 86.7 86.7 3.7 6.0 4.4 261.8 327.2 0.00 0.2636546 72.0
2020-09-27 12:10:00 87.0 16.4 36.1 87.0 87.0 8.0 8.5 5.9 0.1 328.1 0.00 0.2646843 72.1
2020-09-27 12:15:00 86.8 17.0 36.8 86.8 86.8 6.3 8.3 6.6 338.6 354.9 0.00 0.2658990 72.1
2020-09-27 12:20:00 87.1 14.9 33.7 87.1 87.1 6.0 7.1 5.8 0.2 347.0 0.00 0.2677042 72.1
2020-09-27 12:25:00 87.5 13.6 31.8 87.5 87.5 7.1 7.1 5.1 17.0 2.5 0.00 0.2688951 72.2
2020-09-27 12:30:00 88.1 16.2 36.6 88.1 88.1 4.0 8.0 5.3 48.9 2.5 0.00 0.2703264 72.2
2020-09-27 12:35:00 88.7 13.4 32.3 88.7 88.7 4.0 6.2 4.8 338.0 350.9 0.00 0.2709370 72.3
2020-09-27 12:40:00 88.7 13.4 32.2 88.7 88.7 4.7 4.9 3.6 19.1 330.0 0.00 0.2711407 72.3
2020-09-27 12:45:00 89.2 13.6 33.0 89.2 89.2 3.1 5.1 4.0 39.2 14.9 0.00 0.2725487 72.4
2020-09-27 12:50:00 89.5 13.9 33.9 89.5 89.5 8.5 8.5 4.5 17.5 7.6 0.00 0.2721638 72.4
2020-09-27 12:55:00 89.2 13.1 32.1 89.2 89.2 6.0 8.3 6.0 17.7 26.2 0.00 0.2723110 72.4
2020-09-27 13:00:00 89.8 14.0 34.3 89.8 89.8 5.5 8.5 6.1 18.5 32.8 0.00 0.2734508 72.5
2020-09-27 13:05:00 90.9 12.2 31.7 90.9 90.9 5.8 6.0 3.6 19.1 52.4 0.00 0.2739273 72.5
2020-09-27 13:10:00 90.7 14.2 35.4 90.7 90.7 3.5 5.8 3.1 268.3 327.8 0.00 0.2731301 72.6
2020-09-27 13:15:00 90.7 13.4 33.9 90.7 90.7 3.0 6.5 3.6 8.1 2.7 0.00 0.2724860 72.6
2020-09-27 13:20:00 91.2 17.3 40.7 91.2 91.2 2.6 4.7 2.7 96.5 284.7 0.00 0.2720578 72.6
2020-09-27 13:25:00 91.4 12.6 32.8 91.4 91.4 2.4 4.0 2.5 139.9 154.6 0.00 0.2712924 72.7
2020-09-27 13:30:00 92.0 13.5 35.0 92.0 92.0 4.0 5.5 3.4 345.1 45.1 0.00 0.2699864 72.7
2020-09-27 13:35:00 91.9 10.8 29.5 91.9 91.9 0.8 4.0 2.7 285.8 1.7 0.00 0.2687554 72.8
2020-09-27 13:40:00 91.8 13.5 34.9 91.8 91.8 3.0 6.9 3.9 148.4 143.4 0.00 0.2678045 72.8
2020-09-27 13:45:00 91.9 14.7 37.2 91.9 91.9 3.8 5.5 4.3 158.2 149.2 0.00 0.2667670 72.8
2020-09-27 13:50:00 92.2 12.6 33.5 92.2 92.2 5.8 5.8 4.0 30.3 81.3 0.00 0.2654289 72.9
2020-09-27 13:55:00 92.5 11.9 32.3 92.5 92.5 3.0 6.2 4.0 24.1 46.6 0.00 0.2646018 72.9
2020-09-27 14:00:00 91.9 11.8 31.6 91.9 91.9 2.4 8.1 4.9 50.1 108.6 0.00 0.2630483 73.0
2020-09-27 14:05:00 92.1 14.5 37.0 92.1 92.1 4.4 6.5 4.5 309.7 338.0 0.00 0.2611431 73.0
2020-09-27 14:10:00 92.9 13.1 35.0 92.9 92.9 3.7 4.9 2.8 0.2 336.0 0.00 0.2595574 73.1
2020-09-27 14:15:00 93.0 12.3 33.5 93.0 93.0 3.0 4.4 2.7 343.3 15.1 0.00 0.2566274 73.1
2020-09-27 14:20:00 92.7 12.7 34.0 92.7 92.7 2.6 7.8 3.8 315.5 307.1 0.00 0.2529508 73.2
2020-09-27 14:25:00 93.4 11.8 32.8 93.4 93.4 4.7 13.7 7.9 248.3 275.7 0.00 0.2522919 73.2
2020-09-27 14:30:00 92.9 12.0 32.8 92.9 92.9 4.4 12.2 7.3 278.2 262.9 0.00 0.2496411 73.3
2020-09-27 14:35:00 93.5 12.7 34.7 93.5 93.5 3.3 10.6 6.6 289.6 286.6 0.00 0.2460932 73.3
2020-09-27 14:40:00 94.0 12.6 34.9 94.0 94.0 4.6 11.3 7.7 343.5 276.4 0.00 0.2432174 73.3
2020-09-27 14:45:00 94.3 9.9 29.0 94.3 94.3 6.3 13.9 7.0 298.4 282.2 0.00 0.2400070 73.4
2020-09-27 14:50:00 94.2 10.5 30.5 94.2 94.2 10.3 14.0 9.3 313.5 310.0 0.00 0.2370194 73.4
2020-09-27 14:55:00 94.2 10.6 30.7 94.2 94.2 6.7 15.3 9.1 227.6 292.5 0.00 0.2334688 73.5
2020-09-27 15:00:00 94.2 9.1 27.0 94.2 94.2 4.6 7.8 4.7 268.3 271.6 0.00 0.2295047 73.5
2020-09-27 15:05:00 93.4 12.7 34.7 93.4 93.4 10.8 12.2 8.6 1.5 325.6 0.00 0.2263077 73.5
2020-09-27 15:10:00 94.2 9.8 28.7 94.2 94.2 8.5 12.4 7.7 323.5 294.2 0.00 0.2237662 73.6
2020-09-27 15:15:00 94.3 11.4 32.6 94.3 94.3 7.6 12.1 8.4 326.0 310.4 0.00 0.2212921 73.6
2020-09-27 15:20:00 94.0 11.7 33.1 94.0 94.0 9.7 10.5 7.5 308.8 319.7 0.00 0.2170778 73.6
2020-09-27 15:25:00 94.6 11.3 32.6 94.6 94.6 3.8 11.0 7.2 317.2 312.7 0.00 0.2138793 73.7
2020-09-27 15:30:00 94.4 8.8 26.2 94.4 94.4 6.3 8.5 5.7 341.8 281.8 0.00 0.2090064 73.7
2020-09-27 15:35:00 93.9 10.5 30.3 93.9 93.9 5.8 14.2 7.7 317.5 273.4 0.00 0.2039163 73.7
2020-09-27 15:40:00 93.1 9.5 27.2 93.1 93.1 8.7 8.7 6.2 268.6 252.1 0.00 0.1998079 73.7
2020-09-27 15:45:00 93.7 8.8 25.7 93.7 93.7 7.1 10.5 6.9 272.8 280.2 0.00 0.1955249 73.8
2020-09-27 15:50:00 93.9 10.1 29.3 93.9 93.9 8.1 11.2 7.2 325.5 295.2 0.00 0.1908612 73.8
2020-09-27 15:55:00 93.6 11.7 32.7 93.6 93.6 9.6 12.6 9.0 340.6 324.6 0.00 0.1852219 73.8
2020-09-27 16:00:00 93.7 12.2 33.9 93.7 93.7 7.1 9.2 6.7 87.2 322.9 0.00 0.1800975 73.8
2020-09-27 16:05:00 93.6 14.3 37.8 93.6 93.6 4.4 8.3 5.5 309.2 294.9 0.00 0.1753838 73.9
2020-09-27 16:10:00 93.6 10.4 29.9 93.6 93.6 8.1 8.1 5.4 303.1 288.3 0.00 0.1713227 73.9
2020-09-27 16:15:00 93.8 13.6 36.6 93.8 93.8 9.0 9.0 5.8 303.5 335.9 0.00 0.1660044 73.9
2020-09-27 16:20:00 93.1 11.4 31.7 93.1 93.1 8.0 9.2 5.9 275.3 276.4 0.00 0.1601498 73.9
2020-09-27 16:25:00 93.2 12.6 34.4 93.2 93.2 6.3 8.8 7.0 313.1 315.7 0.00 0.1551245 73.9
2020-09-27 16:30:00 93.0 13.2 35.3 93.0 93.0 8.0 9.0 6.7 341.2 319.9 0.00 0.1496846 73.9
2020-09-27 16:35:00 92.8 15.7 39.5 92.8 92.8 4.4 9.0 6.3 337.2 329.7 0.00 0.1446267 73.9
2020-09-27 16:40:00 93.0 12.1 33.1 93.0 93.0 9.9 9.9 6.4 308.1 327.1 0.00 0.1386695 73.9
2020-09-27 16:45:00 92.3 12.6 33.5 92.3 92.3 7.1 9.6 8.0 316.7 318.8 0.00 0.1329667 73.9
2020-09-27 16:50:00 92.6 11.6 31.8 92.6 92.6 6.0 8.5 6.5 301.1 319.9 0.00 0.1282090 73.9
2020-09-27 16:55:00 92.3 20.4 45.9 92.3 92.3 3.1 6.5 4.3 253.8 313.1 0.00 0.1224862 73.9
2020-09-27 17:00:00 91.8 14.6 37.0 91.8 91.8 3.5 5.8 3.6 310.7 290.6 0.00 0.1171606 74.0
2020-09-27 17:05:00 91.9 16.8 40.6 91.9 91.9 4.2 5.6 3.5 284.4 293.0 0.00 0.1110776 74.0
2020-09-27 17:10:00 91.3 18.4 42.5 91.3 91.3 2.4 4.6 2.8 273.8 288.7 0.00 0.1055333 74.0
2020-09-27 17:15:00 91.3 18.4 42.5 91.3 91.3 2.6 4.0 3.0 287.3 296.0 0.00 0.1002902 74.0
2020-09-27 17:20:00 91.1 16.1 38.8 91.1 91.1 4.7 5.1 2.4 279.8 296.5 0.00 0.0950825 74.0
2020-09-27 17:25:00 90.9 16.5 39.3 90.9 90.9 3.5 5.1 3.6 338.2 297.9 0.00 0.0881937 74.0
2020-09-27 17:30:00 90.4 21.2 45.4 90.4 90.4 2.8 4.4 2.7 232.7 291.7 0.00 0.0829760 74.0
2020-09-27 17:35:00 89.6 17.0 39.0 89.6 89.6 5.3 5.5 3.2 0.6 301.1 0.00 0.0760450 74.0
2020-09-27 17:40:00 89.9 18.1 40.8 89.9 89.9 4.0 6.0 4.9 0.1 342.3 0.00 0.0702899 74.0
2020-09-27 17:45:00 89.9 17.4 39.8 89.9 89.9 3.8 4.7 4.0 339.6 339.1 0.00 0.0673794 74.0
2020-09-27 17:50:00 88.6 21.9 44.8 88.6 88.6 1.2 3.5 2.0 199.6 287.2 0.00 0.0614472 74.0
2020-09-27 17:55:00 85.7 24.6 45.4 85.7 85.7 3.5 3.5 2.7 232.0 230.9 0.00 0.0559701 74.0
2020-09-27 18:00:00 85.6 26.6 47.3 85.6 85.6 2.4 3.8 2.9 264.0 244.1 0.00 0.0517271 74.0
2020-09-27 18:05:00 86.0 25.6 46.7 86.0 86.0 2.1 2.6 1.9 277.3 281.6 0.00 0.0475800 74.0
2020-09-27 18:10:00 85.5 26.8 47.5 85.5 85.5 0.0 2.1 1.1 239.9 276.4 0.00 0.0390922 74.0
2020-09-27 18:15:00 83.5 29.2 48.1 83.5 83.5 1.2 2.1 1.2 222.8 247.7 0.00 0.0360175 74.0
2020-09-27 18:20:00 83.0 29.7 48.1 83.0 83.0 0.0 1.5 1.1 209.7 202.6 0.00 0.0327583 74.0
2020-09-27 18:25:00 81.6 30.2 47.4 81.6 81.6 2.6 2.8 1.3 218.1 196.0 0.00 0.0273557 74.0
2020-09-27 18:30:00 79.5 32.9 47.8 79.5 79.5 1.7 2.6 2.1 223.8 214.0 0.00 0.0213394 74.0
2020-09-27 18:35:00 77.9 37.0 49.6 77.9 77.9 1.3 1.9 1.4 211.0 215.0 0.00 0.0053456 74.0
2020-09-27 18:40:00 76.2 35.7 47.1 76.2 76.2 2.6 2.6 1.8 194.2 224.5 0.00 0.0038812 74.0
2020-09-27 18:45:00 75.1 37.5 47.5 75.1 75.1 1.9 3.8 2.0 251.7 226.8 0.00 0.0029435 74.0
2020-09-27 18:50:00 74.5 43.0 50.6 74.5 74.5 1.3 1.7 0.9 177.2 182.5 0.00 0.0019310 74.0
2020-09-27 18:55:00 73.3 55.1 56.2 73.3 73.3 2.8 3.5 2.4 291.5 273.6 0.00 0.0008474 74.0
2020-09-27 19:00:00 73.0 46.1 51.0 73.0 73.0 3.3 3.3 2.8 237.0 280.1 0.00 0.0002380 74.0
2020-09-27 19:05:00 78.4 24.4 39.0 78.4 78.4 3.3 5.3 3.9 247.2 240.8 0.00 0.0007006 74.0
2020-09-27 19:10:00 82.8 20.3 38.0 82.8 82.8 3.0 7.6 5.0 266.8 260.3 0.00 0.0004107 74.0
2020-09-27 19:15:00 83.0 21.5 39.7 83.0 83.0 3.3 4.0 3.0 218.9 253.9 0.00 0.0000000 74.0
2020-09-27 19:20:00 83.4 17.4 34.7 83.4 83.4 3.5 6.3 4.0 266.8 259.7 0.00 0.0000000 74.0
2020-09-27 19:25:00 81.4 24.3 41.5 81.4 81.4 2.6 4.2 2.9 286.1 278.8 0.00 0.0000000 74.0
2020-09-27 19:30:00 79.4 24.6 40.2 79.4 79.4 2.2 3.7 2.5 297.8 283.1 0.00 0.0000000 73.9
2020-09-27 19:35:00 78.4 25.4 40.0 78.4 78.4 1.3 4.0 2.4 283.6 275.8 0.00 0.0000000 73.9
2020-09-27 19:40:00 77.2 28.5 42.0 77.2 77.2 1.3 1.9 1.3 224.4 281.0 0.00 0.0000000 73.9
2020-09-27 19:45:00 75.5 34.9 45.8 75.5 75.5 0.8 1.7 0.6 174.7 218.5 0.00 0.0000000 73.9
2020-09-27 19:50:00 74.0 36.8 46.0 74.0 74.0 1.0 1.0 0.2 11.7 138.4 0.00 0.0000000 73.9
2020-09-27 19:55:00 72.6 38.8 46.1 72.6 72.6 0.0 1.0 0.1 205.0 341.1 0.00 0.0000000 73.9
2020-09-27 20:00:00 71.7 37.8 44.7 71.7 71.7 0.0 1.3 0.6 164.1 118.2 0.00 0.0000000 73.9
2020-09-27 20:05:00 71.0 50.2 51.5 71.0 71.0 1.3 2.1 1.0 178.1 179.5 0.00 0.0000000 73.8
2020-09-27 20:10:00 70.3 43.4 47.0 70.3 70.3 0.8 1.7 0.8 88.2 136.6 0.00 0.0000000 73.8
2020-09-27 20:15:00 69.7 44.4 47.1 69.7 69.7 1.0 1.5 0.7 105.6 114.4 0.00 0.0000000 73.8
2020-09-27 20:20:00 69.2 45.2 47.1 69.2 69.2 1.0 2.1 1.0 331.8 99.8 0.00 0.0000000 73.8
2020-09-27 20:25:00 68.8 45.9 47.1 68.8 68.8 1.9 2.1 0.8 216.5 66.6 0.00 0.0000000 73.8
2020-09-27 20:30:00 68.3 43.8 45.4 68.3 68.3 1.9 2.1 1.4 69.8 62.4 0.00 0.0000000 73.7
2020-09-27 20:35:00 68.9 44.0 46.1 68.9 68.9 2.2 3.5 1.8 50.4 73.6 0.00 0.0000000 73.7
2020-09-27 20:40:00 69.0 45.2 46.9 69.0 69.0 1.5 2.4 1.6 30.3 64.9 0.00 0.0000000 73.7
2020-09-27 20:45:00 68.7 46.5 47.4 68.7 68.7 1.3 2.4 1.5 48.5 63.4 0.00 0.0000000 73.7
2020-09-27 20:50:00 68.5 46.6 47.2 68.5 68.5 1.7 2.2 1.0 101.8 70.2 0.00 0.0000000 73.6
2020-09-27 20:55:00 68.8 43.4 45.6 68.8 68.8 1.9 2.4 1.6 57.7 69.9 0.00 0.0000000 73.6
2020-09-27 21:00:00 69.1 44.0 46.3 69.1 69.1 3.0 3.3 2.2 50.8 73.8 0.00 0.0000000 73.6
2020-09-27 21:05:00 69.5 41.9 45.4 69.5 69.5 4.0 4.0 2.9 81.9 75.0 0.00 0.0000000 73.6
2020-09-27 21:10:00 69.0 46.3 47.5 69.0 69.0 2.4 4.2 3.1 106.2 73.1 0.00 0.0000000 73.6

Data is courtesy of the NM Climate Center. DO NOT USE IN LEGAL PROCEEDINGS.